Time;durP1;ratioP1;P1;durP2;ratioP2;P2;SDS_P1;SDS_P2;PMS_P1;PMS_P2;Temp;Humidity;BMP_temperature;BMP_pressure;BME280_temperature;BME280_humidity;BME280_pressure;Samples;Min_cycle;Max_cycle;Signal;HPM_P1;HPM_P2
2021/10/10 00:00:19;;;;;;;27.35;14.40;;;;;;;3.47;57.17;102270.74;1746444;80;21131;-73
2021/10/10 00:02:45;;;;;;;30.95;17.17;;;;;;;3.49;57.32;102270.91;1767796;80;21537;-74
2021/10/10 00:05:13;;;;;;;29.32;16.82;;;;;;;3.52;57.34;102267.08;1765068;80;21042;-73
2021/10/10 00:07:44;;;;;;;24.30;14.50;;;;;;;3.56;57.45;102275.53;1769943;80;21623;-71
2021/10/10 00:10:13;;;;;;;27.27;16.17;;;;;;;3.58;57.42;102271.70;1771023;80;20947;-71
2021/10/10 00:12:42;;;;;;;23.52;14.87;;;;;;;3.58;57.52;102271.70;1771646;78;21220;-71
2021/10/10 00:15:11;;;;;;;29.23;16.02;;;;;;;3.60;57.55;102270.23;1782294;80;21544;-71
2021/10/10 00:17:40;;;;;;;22.17;13.45;;;;;;;3.61;57.52;102269.22;1790762;78;21560;-70
2021/10/10 00:20:08;;;;;;;28.07;15.95;;;;;;;3.63;57.52;102265.93;1775845;78;20983;-70
2021/10/10 00:22:35;;;;;;;28.95;15.72;;;;;;;3.61;57.49;102263.44;1767920;80;21449;-71
2021/10/10 00:25:07;;;;;;;24.02;14.00;;;;;;;3.60;57.39;102263.13;1765473;80;21138;-71
2021/10/10 00:27:35;;;;;;;24.35;14.47;;;;;;;3.64;57.16;102268.39;1747791;80;21521;-72
2021/10/10 00:30:08;;;;;;;29.05;16.15;;;;;;;3.68;57.00;102266.23;1780199;80;20987;-71
2021/10/10 00:32:36;;;;;;;26.93;15.80;;;;;;;3.72;56.89;102265.73;1775269;80;21133;-72
2021/10/10 00:35:04;;;;;;;25.68;15.55;;;;;;;3.76;56.81;102264.91;1767364;80;21093;-72
2021/10/10 00:37:34;;;;;;;27.10;15.05;;;;;;;3.79;56.73;102261.92;1776673;80;21077;-71
2021/10/10 00:40:02;;;;;;;24.52;15.35;;;;;;;3.83;56.64;102263.72;1763777;78;21448;-72
2021/10/10 00:42:35;;;;;;;22.95;13.78;;;;;;;3.85;56.64;102262.56;1755377;80;21014;-71
2021/10/10 00:45:02;;;;;;;25.80;15.13;;;;;;;3.87;56.65;102265.84;1771454;79;21439;-70
2021/10/10 00:47:29;;;;;;;24.95;15.32;;;;;;;3.86;56.59;102260.24;1781483;80;20987;-72
2021/10/10 00:49:57;;;;;;;25.57;15.23;;;;;;;3.86;56.54;102258.92;1772104;79;21175;-71
2021/10/10 00:52:24;;;;;;;27.55;15.45;;;;;;;3.87;56.51;102257.91;1765218;80;21548;-70
2021/10/10 00:54:56;;;;;;;24.70;14.58;;;;;;;3.90;56.53;102259.40;1781272;80;21038;-70
2021/10/10 00:57:27;;;;;;;25.00;14.03;;;;;;;3.92;56.19;102253.45;1729763;81;21053;-71
2021/10/10 01:00:02;;;;;;;25.85;14.07;;;;;;;3.93;55.79;102258.55;1779903;78;21045;-70
2021/10/10 01:02:36;;;;;;;24.15;13.78;;;;;;;3.94;55.68;102254.91;1735143;80;21988;-70
2021/10/10 01:05:04;;;;;;;24.65;14.98;;;;;;;3.94;55.54;102253.59;1773151;78;21668;-71
2021/10/10 01:07:31;;;;;;;26.77;14.38;;;;;;;3.96;55.61;102246.32;1789701;80;21501;-70
2021/10/10 01:10:00;;;;;;;27.00;15.58;;;;;;;3.96;55.67;102248.97;1765596;78;21074;-70
2021/10/10 01:12:29;;;;;;;23.60;15.45;;;;;;;3.99;55.71;102251.27;1760159;80;20986;-70
2021/10/10 01:14:56;;;;;;;25.20;14.90;;;;;;;4.03;55.81;102249.60;1777921;80;22164;-70
2021/10/10 01:17:24;;;;;;;28.32;15.08;;;;;;;4.04;55.91;102250.73;1790431;80;20923;-72
2021/10/10 01:19:52;;;;;;;25.77;16.00;;;;;;;4.07;55.81;102250.90;1784389;78;21100;-70
2021/10/10 01:22:19;;;;;;;28.00;15.85;;;;;;;4.07;55.61;102246.94;1716916;81;21627;-70
2021/10/10 01:24:46;;;;;;;29.05;16.60;;;;;;;4.08;55.33;102248.10;1771641;80;20995;-70
2021/10/10 01:27:13;;;;;;;26.85;15.95;;;;;;;4.07;55.11;102243.79;1760488;80;21168;-71
2021/10/10 01:29:41;;;;;;;28.73;16.07;;;;;;;4.08;55.04;102243.28;1761113;80;21022;-71
2021/10/10 01:32:08;;;;;;;27.85;15.75;;;;;;;4.07;55.03;102245.61;1767884;80;21058;-71
2021/10/10 01:34:35;;;;;;;26.35;15.35;;;;;;;4.09;55.14;102249.73;1760913;80;20963;-71
2021/10/10 01:37:03;;;;;;;26.17;16.05;;;;;;;4.07;54.83;102239.00;1779604;80;21029;-70
2021/10/10 01:39:30;;;;;;;26.45;15.65;;;;;;;4.07;54.81;102242.97;1774173;78;21245;-71
2021/10/10 01:41:56;;;;;;;28.52;16.65;;;;;;;4.06;54.92;102243.47;1760512;80;20995;-70
2021/10/10 01:44:23;;;;;;;29.25;15.80;;;;;;;4.05;54.88;102243.16;1764333;80;20988;-69
2021/10/10 01:46:49;;;;;;;33.85;17.92;;;;;;;4.05;54.78;102239.66;1764656;80;21114;-70
2021/10/10 01:49:16;;;;;;;25.10;15.18;;;;;;;4.03;54.79;102242.49;1787681;80;21034;-70
2021/10/10 01:51:43;;;;;;;26.95;15.25;;;;;;;4.04;54.78;102237.52;1780100;80;21127;-70
2021/10/10 01:54:09;;;;;;;26.33;16.07;;;;;;;4.04;54.91;102234.05;1788456;80;21072;-71
2021/10/10 01:56:37;;;;;;;28.32;16.48;;;;;;;4.03;55.10;102235.88;1768804;77;21126;-71
2021/10/10 01:59:04;;;;;;;27.17;15.35;;;;;;;4.04;55.26;102236.20;1763849;80;21006;-70
2021/10/10 02:01:31;;;;;;;24.15;14.23;;;;;;;4.05;55.30;102239.19;1765120;78;21041;-70
2021/10/10 02:03:59;;;;;;;32.00;16.48;;;;;;;4.05;55.29;102236.55;1771741;80;21173;-70
2021/10/10 02:06:26;;;;;;;24.90;15.78;;;;;;;4.07;55.50;102239.00;1765593;80;21030;-71
2021/10/10 02:08:53;;;;;;;26.15;15.83;;;;;;;4.08;55.65;102236.67;1777865;80;21549;-71
2021/10/10 02:11:19;;;;;;;23.85;14.83;;;;;;;4.09;55.78;102235.70;1768886;80;21010;-71
2021/10/10 02:13:47;;;;;;;26.65;15.90;;;;;;;4.11;55.80;102244.27;1771372;80;21462;-71
2021/10/10 02:16:14;;;;;;;29.92;16.25;;;;;;;4.11;55.73;102242.44;1784051;78;22127;-71
2021/10/10 02:18:41;;;;;;;28.07;16.23;;;;;;;4.12;55.75;102240.64;1766447;80;20979;-71
2021/10/10 02:21:07;;;;;;;25.95;15.70;;;;;;;4.13;55.89;102238.31;1761989;78;21022;-71
2021/10/10 02:23:34;;;;;;;25.17;15.13;;;;;;;4.13;55.97;102244.42;1766664;80;21034;-71
2021/10/10 02:26:01;;;;;;;24.02;14.43;;;;;;;4.15;55.81;102247.73;1770361;80;20971;-72
2021/10/10 02:28:28;;;;;;;25.92;15.25;;;;;;;4.16;55.76;102245.91;1769956;80;21222;-71
2021/10/10 02:30:54;;;;;;;26.57;14.93;;;;;;;4.18;55.64;102246.57;1779019;80;21120;-71
2021/10/10 02:33:21;;;;;;;27.05;14.30;;;;;;;4.18;55.36;102243.92;1781876;78;21066;-71
2021/10/10 02:35:49;;;;;;;23.22;14.35;;;;;;;4.18;55.34;102246.06;1770232;80;21038;-71
2021/10/10 02:38:15;;;;;;;26.93;15.18;;;;;;;4.18;55.35;102250.53;1764514;80;21018;-73
2021/10/10 02:40:48;;;;;;;23.38;13.10;;;;;;;4.18;55.39;102242.09;1780205;80;21446;-72
2021/10/10 02:43:14;;;;;;;25.60;14.55;;;;;;;4.19;55.52;102248.20;1738923;80;21042;-71
2021/10/10 02:45:41;;;;;;;25.37;15.28;;;;;;;4.19;55.61;102249.53;1767113;80;21477;-72
2021/10/10 02:48:08;;;;;;;25.30;15.40;;;;;;;4.20;55.87;102251.98;1765288;80;21065;-70
2021/10/10 02:50:35;;;;;;;29.15;15.48;;;;;;;4.21;56.07;102249.69;1759950;80;21065;-71
2021/10/10 02:53:03;;;;;;;23.85;15.10;;;;;;;4.21;56.29;102255.45;1763705;80;21051;-71
2021/10/10 02:55:30;;;;;;;23.35;13.22;;;;;;;4.23;56.32;102253.47;1759485;80;21105;-70
2021/10/10 02:57:58;;;;;;;24.15;15.00;;;;;;;4.22;56.41;102260.58;1770173;80;20971;-70
2021/10/10 03:00:25;;;;;;;26.40;15.15;;;;;;;4.22;56.41;102254.48;1790009;78;21006;-70
2021/10/10 03:02:52;;;;;;;26.75;14.93;;;;;;;4.21;56.50;102256.77;1778939;78;21060;-71
2021/10/10 03:05:19;;;;;;;23.98;14.28;;;;;;;4.20;56.62;102255.13;1788753;80;21616;-71
2021/10/10 03:07:46;;;;;;;24.12;13.98;;;;;;;4.20;56.65;102253.81;1763057;80;21077;-71
2021/10/10 03:10:13;;;;;;;22.50;13.95;;;;;;;4.18;56.60;102254.50;1761023;80;20955;-70
2021/10/10 03:12:39;;;;;;;24.85;14.68;;;;;;;4.17;56.60;102251.01;1772503;80;20932;-70
2021/10/10 03:15:07;;;;;;;26.17;15.13;;;;;;;4.18;56.75;102249.22;1767089;79;20979;-68
2021/10/10 03:17:33;;;;;;;27.00;16.00;;;;;;;4.18;56.74;102251.36;1766362;79;21072;-71
2021/10/10 03:20:00;;;;;;;23.73;14.90;;;;;;;4.17;56.74;102240.43;1764441;78;21527;-71
2021/10/10 03:22:27;;;;;;;21.37;13.93;;;;;;;4.18;56.80;102247.89;1762999;78;21037;-71
2021/10/10 03:24:53;;;;;;;25.77;14.38;;;;;;;4.14;56.89;102240.77;1768879;80;21256;-71
2021/10/10 03:27:25;;;;;;;23.75;14.85;;;;;;;4.13;56.91;102238.31;1767323;80;21008;-72
2021/10/10 03:29:50;;;;;;;27.77;15.63;;;;;;;4.12;56.80;102237.50;1761463;80;21988;-72
2021/10/10 03:32:16;;;;;;;27.60;15.20;;;;;;;4.10;56.69;102234.69;1761120;80;21474;-72
2021/10/10 03:34:43;;;;;;;26.27;15.35;;;;;;;4.08;56.63;102228.73;1772268;80;20974;-71
2021/10/10 03:37:10;;;;;;;25.75;15.35;;;;;;;4.07;56.64;102229.75;1768829;80;21007;-71
2021/10/10 03:39:36;;;;;;;22.95;13.85;;;;;;;4.06;56.63;102226.79;1763388;79;21128;-71
2021/10/10 03:42:03;;;;;;;29.98;16.20;;;;;;;4.04;56.66;102226.13;1762693;80;22005;-72
2021/10/10 03:44:31;;;;;;;23.90;15.50;;;;;;;4.01;56.70;102229.93;1760546;80;21050;-72
2021/10/10 03:46:57;;;;;;;26.57;16.00;;;;;;;3.99;56.78;102227.47;1770882;80;21038;-72
2021/10/10 03:49:24;;;;;;;25.70;15.88;;;;;;;3.98;56.93;102229.80;1778618;80;21655;-71
2021/10/10 03:51:53;;;;;;;25.77;16.35;;;;;;;3.95;57.06;102224.85;1765874;80;20891;-72
2021/10/10 03:56:52;;;;;;;23.60;15.03;;;;;;;3.94;57.15;102225.01;1766032;80;20991;-72
2021/10/10 03:59:20;;;;;;;26.27;15.45;;;;;;;3.91;57.27;102216.92;1762530;80;21077;-71
2021/10/10 04:01:47;;;;;;;26.73;15.68;;;;;;;3.93;57.43;102216.77;1780869;80;21006;-72
2021/10/10 04:04:13;;;;;;;22.98;15.30;;;;;;;3.92;57.43;102214.62;1780284;79;20970;-71
2021/10/10 04:06:40;;;;;;;22.13;15.43;;;;;;;3.91;57.48;102210.31;1756715;80;21543;-71
2021/10/10 04:09:07;;;;;;;22.70;14.60;;;;;;;3.90;57.60;102215.78;1777384;80;21034;-72
2021/10/10 04:11:36;;;;;;;22.60;14.45;;;;;;;3.88;57.71;102211.16;1778213;80;21604;-72
2021/10/10 04:14:03;;;;;;;23.02;14.50;;;;;;;3.86;57.82;102210.02;1763830;79;21010;-72
2021/10/10 04:16:30;;;;;;;25.05;14.63;;;;;;;3.85;57.90;102209.70;1763292;80;21034;-69
2021/10/10 04:18:57;;;;;;;22.35;15.40;;;;;;;3.86;57.93;102210.02;1770659;80;21383;-70
2021/10/10 04:21:24;;;;;;;22.42;14.35;;;;;;;3.85;57.99;102205.73;1765882;80;20975;-71
2021/10/10 04:23:51;;;;;;;24.50;14.30;;;;;;;3.84;58.08;102202.74;1778666;80;21129;-71
2021/10/10 04:26:18;;;;;;;24.67;15.70;;;;;;;3.84;58.19;102205.89;1763521;80;20991;-71
2021/10/10 04:28:45;;;;;;;23.70;14.30;;;;;;;3.86;58.30;102208.70;1765082;78;21057;-71
2021/10/10 04:31:12;;;;;;;22.35;14.70;;;;;;;3.86;58.36;102212.66;1764483;80;21126;-71
2021/10/10 04:33:39;;;;;;;21.93;14.50;;;;;;;3.83;58.29;102211.68;1787735;80;20975;-71
2021/10/10 04:36:05;;;;;;;22.45;13.62;;;;;;;3.85;58.33;102214.98;1768588;79;21478;-70
2021/10/10 04:38:32;;;;;;;22.93;14.47;;;;;;;3.86;58.37;102212.66;1760633;78;21031;-71
2021/10/10 04:40:59;;;;;;;27.95;14.40;;;;;;;3.89;58.45;102218.11;1770017;80;21568;-70
2021/10/10 04:43:25;;;;;;;22.80;14.03;;;;;;;3.90;58.48;102214.46;1766270;80;21532;-70
2021/10/10 04:45:52;;;;;;;22.25;13.83;;;;;;;3.92;58.54;102215.94;1773077;80;21473;-71
2021/10/10 04:48:19;;;;;;;20.65;13.15;;;;;;;3.94;58.54;102215.76;1766228;80;21648;-71
2021/10/10 04:50:46;;;;;;;22.70;14.35;;;;;;;3.96;58.61;102211.95;1783610;80;21030;-71
2021/10/10 04:53:12;;;;;;;21.80;13.98;;;;;;;3.97;58.66;102209.63;1766092;80;20976;-70
2021/10/10 04:55:39;;;;;;;18.62;12.73;;;;;;;4.02;58.70;102208.31;1768548;78;21099;-71
2021/10/10 04:58:05;;;;;;;23.60;14.13;;;;;;;4.05;58.74;102214.54;1776696;80;21070;-71
2021/10/10 05:00:32;;;;;;;21.52;12.93;;;;;;;4.08;58.74;102210.23;1764698;80;21066;-72
2021/10/10 05:02:58;;;;;;;19.35;13.00;;;;;;;4.12;58.71;102215.52;1763366;80;20975;-70
2021/10/10 05:05:26;;;;;;;19.82;12.58;;;;;;;4.16;58.68;102215.49;1760960;80;21073;-71
2021/10/10 05:07:53;;;;;;;20.62;12.85;;;;;;;4.20;58.64;102220.75;1767236;78;21097;-71
2021/10/10 05:10:21;;;;;;;20.52;12.58;;;;;;;4.26;58.55;102221.39;1771251;80;21454;-71
2021/10/10 05:12:48;;;;;;;20.32;12.60;;;;;;;4.29;58.46;102215.75;1770156;80;21042;-71
2021/10/10 05:15:15;;;;;;;20.88;12.60;;;;;;;4.35;58.33;102220.34;1774005;80;21069;-72
2021/10/10 05:17:58;;;;;;;21.33;12.95;;;;;;;4.39;58.17;102220.81;1783359;78;21041;-71
2021/10/10 05:20:39;;;;;;;19.17;11.78;;;;;;;4.43;58.16;102220.78;1765448;78;21128;-71
2021/10/10 05:23:05;;;;;;;20.35;13.00;;;;;;;4.49;58.14;102219.27;1770541;80;21029;-71
2021/10/10 05:25:33;;;;;;;20.70;12.25;;;;;;;4.53;58.31;102232.47;1776869;80;20983;-71
2021/10/10 05:28:00;;;;;;;19.57;12.07;;;;;;;4.59;58.60;102238.38;1769442;80;21062;-71
2021/10/10 05:30:27;;;;;;;19.77;11.57;;;;;;;4.66;58.84;102241.97;1785705;78;20979;-71
2021/10/10 05:32:53;;;;;;;17.98;11.50;;;;;;;4.70;58.95;102236.16;1771763;80;21780;-71
2021/10/10 05:35:20;;;;;;;21.12;13.00;;;;;;;4.76;58.97;102241.23;1770711;80;21202;-70
2021/10/10 05:37:47;;;;;;;18.73;12.13;;;;;;;4.80;58.96;102241.19;1766670;78;20987;-71
2021/10/10 05:40:14;;;;;;;22.58;13.55;;;;;;;4.86;58.84;102241.81;1771503;80;21022;-71
2021/10/10 05:42:42;;;;;;;20.77;12.95;;;;;;;4.93;58.78;102241.41;1765582;80;21548;-71
2021/10/10 05:45:10;;;;;;;19.65;12.50;;;;;;;4.99;58.84;102242.53;1772010;80;21119;-71
2021/10/10 05:47:39;;;;;;;20.88;12.73;;;;;;;5.05;58.93;102235.20;1764660;80;20936;-71
2021/10/10 05:50:06;;;;;;;22.70;13.70;;;;;;;5.11;58.87;102235.81;1759642;81;21192;-71
2021/10/10 05:52:35;;;;;;;19.00;11.63;;;;;;;5.18;58.78;102235.92;1778187;80;21521;-71
2021/10/10 05:55:06;;;;;;;21.80;13.15;;;;;;;5.23;58.74;102232.72;1771247;80;20947;-71
2021/10/10 05:57:43;;;;;;;17.77;10.82;;;;;;;5.27;58.72;102232.70;1778798;80;21781;-72
2021/10/10 06:00:06;;;;;;;17.98;12.10;;;;;;;5.34;58.62;102244.22;1759987;80;20967;-72
2021/10/10 06:02:34;;;;;;;17.37;12.25;;;;;;;5.36;58.44;102235.09;1782441;80;21081;-70
2021/10/10 06:05:01;;;;;;;19.82;12.63;;;;;;;5.38;58.26;102238.38;1775356;80;21015;-72
2021/10/10 06:07:27;;;;;;;17.02;11.50;;;;;;;5.46;58.14;102243.27;1774195;78;20995;-72
2021/10/10 06:09:54;;;;;;;17.30;10.98;;;;;;;5.51;57.86;102239.06;1781971;78;21467;-72
2021/10/10 06:12:23;;;;;;;19.73;11.45;;;;;;;5.57;57.39;102238.34;1775633;78;21073;-74
2021/10/10 06:14:52;;;;;;;17.20;11.12;;;;;;;5.63;56.97;102241.59;1711124;81;21114;-73
2021/10/10 06:17:20;;;;;;;15.95;10.58;;;;;;;5.71;56.75;102242.00;1763144;80;21485;-73
2021/10/10 06:19:46;;;;;;;17.95;10.88;;;;;;;5.79;56.33;102245.90;1771792;78;23059;-73
2021/10/10 06:22:13;;;;;;;17.05;11.57;;;;;;;5.88;56.06;102244.77;1768492;80;21196;-73
2021/10/10 06:24:40;;;;;;;15.78;9.80;;;;;;;5.98;55.80;102243.70;1763819;80;21133;-73
2021/10/10 06:27:15;;;;;;;18.40;10.63;;;;;;;6.08;55.40;102246.88;1769513;78;20936;-72
2021/10/10 06:29:49;;;;;;;16.02;9.93;;;;;;;6.20;55.22;102248.06;1769028;79;21018;-73
2021/10/10 06:32:16;;;;;;;15.95;10.70;;;;;;;6.34;54.70;102249.03;1771457;80;21142;-73
2021/10/10 06:34:44;;;;;;;15.63;9.98;;;;;;;6.46;54.24;102242.73;1748915;80;21146;-73
2021/10/10 06:37:10;;;;;;;18.45;10.68;;;;;;;6.58;53.75;102245.19;1774789;78;20999;-73
2021/10/10 06:39:37;;;;;;;16.45;10.40;;;;;;;6.70;53.20;102243.69;1779924;80;21493;-73
2021/10/10 06:42:12;;;;;;;16.42;10.32;;;;;;;6.79;52.94;102239.90;1770606;80;20990;-73
2021/10/10 06:44:36;;;;;;;15.88;10.28;;;;;;;6.89;52.82;102240.91;1784428;77;21010;-72
2021/10/10 06:47:03;;;;;;;16.77;10.88;;;;;;;7.00;52.51;102242.22;1772939;77;21108;-73
2021/10/10 06:49:29;;;;;;;14.95;10.05;;;;;;;7.10;52.08;102240.05;1769930;80;20979;-73
2021/10/10 06:51:56;;;;;;;17.75;10.40;;;;;;;7.21;52.27;102238.21;1763952;80;21136;-72
2021/10/10 06:54:23;;;;;;;20.08;11.55;;;;;;;7.32;52.10;102236.03;1778516;80;21034;-72
2021/10/10 06:56:52;;;;;;;14.90;10.18;;;;;;;7.43;52.04;102236.81;1778917;80;21671;-72
2021/10/10 06:59:21;;;;;;;16.97;11.05;;;;;;;7.55;51.64;102236.59;1780528;80;21212;-73
2021/10/10 07:01:48;;;;;;;17.92;10.80;;;;;;;7.67;51.56;102236.87;1778512;80;21004;-72
2021/10/10 07:04:14;;;;;;;16.37;10.93;;;;;;;7.80;51.04;102232.11;1776887;80;21042;-71
2021/10/10 07:06:43;;;;;;;16.12;10.38;;;;;;;7.90;50.77;102234.73;1768171;80;21038;-72
2021/10/10 07:09:11;;;;;;;17.55;10.72;;;;;;;8.01;50.32;102238.67;1775407;78;21034;-72
2021/10/10 07:11:39;;;;;;;17.02;10.40;;;;;;;8.10;50.27;102240.14;1781662;80;20955;-72
2021/10/10 07:14:06;;;;;;;14.75;10.05;;;;;;;8.19;50.36;102238.95;1768587;80;21006;-72
2021/10/10 07:16:35;;;;;;;15.70;10.35;;;;;;;8.33;49.90;102236.33;1790905;80;20979;-73
2021/10/10 07:19:03;;;;;;;14.60;9.13;;;;;;;8.50;49.71;102239.48;1742540;80;21445;-72
2021/10/10 07:27:02;;;;;;;16.90;9.60;;;;;;;8.94;47.40;102232.23;1764483;80;20912;-72
2021/10/10 07:29:30;;;;;;;13.80;8.10;;;;;;;9.07;47.49;102230.91;1763219;80;21576;-73
2021/10/10 07:31:57;;;;;;;10.75;7.60;;;;;;;9.22;46.80;102229.37;1768174;80;21070;-74
2021/10/10 07:34:24;;;;;;;12.50;8.30;;;;;;;9.34;46.41;102222.87;1763368;80;21074;-73
2021/10/10 07:36:53;;;;;;;11.97;7.85;;;;;;;9.45;45.88;102228.92;1770255;80;21589;-71
2021/10/10 07:39:20;;;;;;;10.03;7.53;;;;;;;9.60;45.14;102230.00;1770363;80;21022;-73
2021/10/10 07:41:49;;;;;;;13.08;8.05;;;;;;;9.74;44.99;102232.96;1764292;80;21062;-73
2021/10/10 07:44:16;;;;;;;12.55;8.03;;;;;;;9.94;44.94;102230.22;1763014;80;21046;-72
2021/10/10 07:46:44;;;;;;;11.57;7.80;;;;;;;10.21;43.84;102219.42;1777887;80;21031;-72
2021/10/10 07:49:13;;;;;;;11.40;6.70;;;;;;;10.39;43.28;102227.55;1782677;80;21491;-71
2021/10/10 07:51:42;;;;;;;10.82;6.72;;;;;;;10.58;43.57;102216.97;1743257;80;20995;-72
2021/10/10 07:54:16;;;;;;;11.28;6.75;;;;;;;10.81;43.00;102214.52;1766276;79;21077;-71
2021/10/10 07:56:52;;;;;;;10.32;7.08;;;;;;;11.06;42.61;102213.20;1778975;80;21466;-72
2021/10/10 07:59:26;;;;;;;10.13;6.33;;;;;;;11.28;41.45;102205.56;1768629;78;21093;-72
2021/10/10 08:01:53;;;;;;;10.80;6.53;;;;;;;11.45;40.91;102204.46;1774868;78;21109;-72
2021/10/10 08:04:21;;;;;;;9.97;6.13;;;;;;;11.60;41.18;102201.43;1776068;80;21035;-72
2021/10/10 08:06:48;;;;;;;9.53;6.08;;;;;;;11.77;40.32;102200.30;1773243;79;21743;-73
2021/10/10 08:09:15;;;;;;;10.00;6.40;;;;;;;11.84;39.29;102207.73;1774021;80;21036;-74
2021/10/10 08:11:42;;;;;;;12.87;6.13;;;;;;;11.86;38.64;102204.34;1768833;80;21294;-71
2021/10/10 08:14:11;;;;;;;8.90;6.03;;;;;;;11.86;39.35;102202.48;1775379;80;21316;-72
2021/10/10 08:16:39;;;;;;;10.40;5.70;;;;;;;11.93;38.39;102197.86;1773654;79;21274;-72
2021/10/10 08:19:06;;;;;;;10.67;6.40;;;;;;;12.00;38.70;102199.11;1776452;80;21182;-72
2021/10/10 08:21:33;;;;;;;11.67;6.50;;;;;;;12.10;38.27;102195.89;1778805;80;21325;-73
2021/10/10 08:24:02;;;;;;;11.50;6.80;;;;;;;12.14;37.96;102196.57;1774144;80;21228;-74
2021/10/10 08:26:31;;;;;;;8.27;5.73;;;;;;;12.20;37.64;102198.84;1772833;78;21968;-73
2021/10/10 08:28:58;;;;;;;8.13;5.23;;;;;;;12.32;37.40;102193.53;1775114;78;21217;-72
2021/10/10 08:31:26;;;;;;;9.10;5.57;;;;;;;12.42;36.94;102192.45;1774079;80;21365;-73
2021/10/10 08:33:52;;;;;;;7.43;4.87;;;;;;;12.47;37.16;102199.30;1771525;80;21293;-72
2021/10/10 08:36:19;;;;;;;9.10;5.23;;;;;;;12.51;37.50;102198.31;1766443;79;21376;-71
2021/10/10 08:38:48;;;;;;;8.43;5.07;;;;;;;12.54;37.54;102189.82;1772548;78;21424;-71
2021/10/10 08:41:15;;;;;;;8.50;5.00;;;;;;;12.61;37.63;102189.19;1772185;80;21259;-71
2021/10/10 08:43:48;;;;;;;7.27;5.13;;;;;;;12.64;35.98;102190.88;1776068;78;21424;-73
2021/10/10 08:46:13;;;;;;;9.33;5.90;;;;;;;12.62;36.45;102194.83;1752725;80;21309;-72
2021/10/10 08:48:40;;;;;;;7.77;5.17;;;;;;;12.60;36.46;102191.05;1773229;79;21350;-73
2021/10/10 08:51:07;;;;;;;9.20;5.30;;;;;;;12.65;36.95;102191.16;1777195;80;21756;-73
2021/10/10 08:53:34;;;;;;;7.17;4.80;;;;;;;12.74;36.09;102190.84;1773949;78;21370;-70
2021/10/10 08:56:01;;;;;;;9.70;5.73;;;;;;;12.75;35.64;102186.58;1750537;80;21249;-73
2021/10/10 08:58:35;;;;;;;10.13;5.33;;;;;;;12.74;35.48;102182.27;1767064;78;21325;-74
2021/10/10 09:01:01;;;;;;;9.83;5.83;;;;;;;12.75;35.50;102181.21;1722666;81;21358;-72
2021/10/10 09:03:28;;;;;;;7.62;4.75;;;;;;;12.78;35.46;102187.45;1772942;80;21919;-73
2021/10/10 09:05:56;;;;;;;8.83;5.27;;;;;;;12.86;35.55;102175.03;1766451;80;21074;-74
2021/10/10 09:08:23;;;;;;;10.07;5.20;;;;;;;13.01;35.06;102181.81;1755692;80;21930;-73
2021/10/10 09:11:00;;;;;;;10.40;5.17;;;;;;;13.14;35.43;102177.55;1725545;81;21343;-74
2021/10/10 09:13:36;;;;;;;9.50;5.00;;;;;;;13.31;35.30;102170.45;1766380;80;21260;-75
2021/10/10 09:16:05;;;;;;;5.90;4.33;;;;;;;13.58;34.78;102172.08;1747605;80;21561;-74
2021/10/10 09:18:39;;;;;;;7.17;4.40;;;;;;;13.70;32.72;102169.37;1770031;78;21338;-75
2021/10/10 09:21:28;;;;;;;8.03;4.33;;;;;;;13.68;33.15;102169.31;1776169;80;21260;-74
2021/10/10 09:23:56;;;;;;;7.10;4.47;;;;;;;13.69;33.06;102163.72;1767707;80;21746;-74
2021/10/10 09:26:24;;;;;;;7.87;4.30;;;;;;;13.68;33.05;102167.44;1769160;80;21778;-72
2021/10/10 09:28:54;;;;;;;6.77;4.53;;;;;;;13.71;34.12;102166.97;1788943;80;21777;-74
2021/10/10 09:31:27;;;;;;;7.73;4.63;;;;;;;13.87;33.90;102164.06;1751055;80;21251;-73
2021/10/10 09:33:57;;;;;;;7.27;4.07;;;;;;;14.06;33.43;102155.28;1768980;78;21296;-73
2021/10/10 09:36:27;;;;;;;7.27;4.17;;;;;;;14.09;32.19;102152.12;1773593;78;21846;-74
2021/10/10 09:39:03;;;;;;;6.77;4.27;;;;;;;14.02;32.43;102154.14;1768261;78;21206;-73
2021/10/10 09:41:32;;;;;;;7.47;4.57;;;;;;;13.96;32.71;102152.41;1781126;78;21732;-73
2021/10/10 09:44:17;;;;;;;7.42;4.50;;;;;;;13.88;32.77;102149.56;1763411;78;21342;-73
2021/10/10 09:46:46;;;;;;;8.83;4.05;;;;;;;13.86;32.94;102145.52;1761636;80;21058;-73
2021/10/10 09:49:33;;;;;;;8.53;4.40;;;;;;;13.88;32.42;102146.07;1789111;80;20971;-72
2021/10/10 09:52:13;;;;;;;6.93;4.07;;;;;;;13.88;33.15;102146.07;1760335;80;21240;-73
2021/10/10 09:54:58;;;;;;;7.60;4.70;;;;;;;13.91;32.86;102139.69;1789449;80;21472;-72
2021/10/10 09:57:27;;;;;;;6.60;4.17;;;;;;;13.89;32.93;102136.97;1770091;78;21319;-73
2021/10/10 09:59:55;;;;;;;8.10;4.43;;;;;;;13.86;32.31;102141.48;1787313;80;21361;-74
2021/10/10 10:02:42;;;;;;;7.00;3.97;;;;;;;13.83;32.61;102134.18;1780556;79;21263;-73
2021/10/10 10:05:09;;;;;;;6.83;4.00;;;;;;;13.86;32.53;102138.80;1771436;80;21291;-73
2021/10/10 10:07:36;;;;;;;6.73;4.43;;;;;;;13.94;33.15;102137.86;1765021;80;21358;-73
2021/10/10 10:10:06;;;;;;;7.17;3.27;;;;;;;14.11;32.86;102131.71;1773640;80;21222;-73
2021/10/10 10:12:33;;;;;;;5.30;3.03;;;;;;;14.25;31.77;102125.80;1771656;80;21189;-74
2021/10/10 10:15:01;;;;;;;5.27;2.30;;;;;;;14.38;30.97;102125.17;1711050;81;21178;-72
2021/10/10 10:17:28;;;;;;;7.30;2.73;;;;;;;14.50;31.30;102127.27;1771254;78;21841;-74
2021/10/10 10:19:58;;;;;;;5.93;2.63;;;;;;;14.64;31.67;102121.05;1775500;80;21343;-72
2021/10/10 10:22:27;;;;;;;7.77;3.00;;;;;;;14.78;32.15;102121.83;1763457;80;21367;-72
2021/10/10 10:24:53;;;;;;;6.97;3.10;;;;;;;14.89;31.17;102120.63;1760118;81;21300;-72
2021/10/10 10:27:21;;;;;;;6.10;3.10;;;;;;;14.95;31.20;102119.64;1778391;80;21465;-73
2021/10/10 10:29:49;;;;;;;7.60;3.50;;;;;;;15.00;31.05;102113.80;1772258;80;21358;-73
2021/10/10 10:32:16;;;;;;;6.87;3.60;;;;;;;15.05;31.05;102100.13;1760409;80;21833;-73
2021/10/10 10:35:05;;;;;;;6.60;3.30;;;;;;;15.14;30.51;102102.67;1778604;80;21454;-74
2021/10/10 10:37:48;;;;;;;7.03;3.83;;;;;;;15.13;30.55;102110.44;1787702;80;21793;-73
2021/10/10 10:40:27;;;;;;;6.43;3.70;;;;;;;15.00;30.62;102103.55;1785974;78;21481;-73
2021/10/10 10:42:56;;;;;;;5.17;3.70;;;;;;;15.00;30.62;102103.55;1723986;83;21345;-74
2021/10/10 10:45:41;;;;;;;7.87;3.50;;;;;;;14.69;30.47;102097.74;1785190;79;21472;-73
2021/10/10 10:48:28;;;;;;;18.93;8.67;;;;;;;14.69;30.47;102097.74;1765871;78;21402;-72
2021/10/10 10:51:28;;;;;;;11.67;6.00;;;;;;;14.62;32.39;102107.05;1749705;80;21948;-72
2021/10/10 10:54:33;;;;;;;15.27;10.27;;;;;;;14.71;31.61;102100.20;1763324;79;21480;-71
2021/10/10 10:57:00;;;;;;;10.33;7.83;;;;;;;15.00;31.51;102095.47;1771227;80;21333;-74
2021/10/10 11:00:05;;;;;;;7.47;3.60;;;;;;;15.00;31.51;102095.47;1772423;79;21494;-74
2021/10/10 11:03:13;;;;;;;5.07;2.90;;;;;;;15.09;30.34;102092.64;1768221;80;21384;-71
2021/10/10 11:05:57;;;;;;;5.93;3.07;;;;;;;15.19;31.03;102087.38;1774566;80;21395;-73
2021/10/10 11:08:36;;;;;;;5.60;3.20;;;;;;;15.42;30.76;102078.23;1779370;80;21448;-72
2021/10/10 11:11:14;;;;;;;7.60;3.30;;;;;;;15.47;29.74;102080.19;1775581;80;21424;-73
2021/10/10 11:14:02;;;;;;;4.80;2.47;;;;;;;15.47;29.74;102080.19;1776980;80;21571;-73
2021/10/10 11:16:32;;;;;;;3.83;2.20;;;;;;;15.53;29.43;102074.30;1777211;80;21144;-73
2021/10/10 11:19:03;;;;;;;;;;;;;;;15.53;28.84;102081.03;1780255;78;21536;-74
2021/10/10 11:21:36;;;;;;;4.60;1.97;;;;;;;15.54;28.79;102082.69;1748982;80;20748;-74
2021/10/10 11:24:07;;;;;;;5.87;2.30;;;;;;;15.60;28.90;102082.48;1778636;80;21446;-74
2021/10/10 11:26:36;;;;;;;4.20;2.03;;;;;;;15.69;29.08;102082.34;1783906;78;21446;-74
2021/10/10 11:29:12;;;;;;;4.10;2.00;;;;;;;15.77;26.93;102069.48;1774624;80;22044;-74
2021/10/10 11:31:41;;;;;;;4.67;2.00;;;;;;;15.75;26.49;102074.30;1769596;80;21734;-75
2021/10/10 11:34:19;;;;;;;6.20;2.23;;;;;;;15.69;27.08;102066.69;1765071;80;21471;-76
2021/10/10 11:36:56;;;;;;;6.13;2.30;;;;;;;15.64;26.31;102064.74;1778932;78;21481;-74